Time;durP1;ratioP1;P1;durP2;ratioP2;P2;SDS_P1;SDS_P2;PMS_P1;PMS_P2;Temp;Humidity;BMP_temperature;BMP_pressure;BME280_temperature;BME280_humidity;BME280_pressure;Samples;Min_cycle;Max_cycle;Signal;HPM_P1;HPM_P2
2022/10/11 00:00:59;;;;;;;7.97;5.57;;;13.50;99.90;;;-141.84;71.98;19035.53;5093934;28;20363;-68
2022/10/11 00:03:27;;;;;;;6.53;5.50;;;13.50;99.90;;;-141.84;71.43;19021.31;5093521;28;20320;-67
2022/10/11 00:05:56;;;;;;;6.38;5.15;;;13.50;99.90;;;-141.84;72.29;19066.00;5106237;28;20215;-67
2022/10/11 00:08:24;;;;;;;8.50;5.85;;;13.40;99.90;;;-141.84;72.38;19007.06;5113653;28;20227;-69
2022/10/11 00:11:00;;;;;;;7.22;5.35;;;13.50;99.90;;;-141.84;72.99;18990.81;5113354;28;20339;-67
2022/10/11 00:13:30;;;;;;;7.88;5.93;;;13.40;99.90;;;-141.84;73.07;18998.94;5113595;28;20223;-66
2022/10/11 00:15:58;;;;;;;6.60;5.33;;;13.40;99.90;;;-141.84;73.34;18992.84;5114060;28;20202;-67
2022/10/11 00:18:27;;;;;;;7.97;5.30;;;13.30;99.90;;;-141.84;73.99;18950.19;5113443;28;20239;-67
2022/10/11 00:21:03;;;;;;;8.82;5.32;;;13.40;99.90;;;-141.84;73.93;18966.44;5113041;28;20223;-68
2022/10/11 00:23:32;;;;;;;8.05;5.63;;;13.30;99.90;;;-141.84;74.12;18940.03;5109594;28;20246;-67
2022/10/11 00:26:03;;;;;;;8.13;6.43;;;13.20;99.90;;;-141.84;74.10;18972.53;5112356;28;20779;-67
2022/10/11 00:28:34;;;;;;;9.82;5.80;;;13.20;99.90;;;-141.84;74.14;18942.06;5113416;28;20227;-67
2022/10/11 00:31:06;;;;;;;6.93;5.20;;;13.20;99.90;;;-141.84;74.10;18942.06;5113985;28;20230;-67
2022/10/11 00:33:34;;;;;;;8.82;6.35;;;13.20;99.90;;;-141.84;74.47;18923.78;5113255;28;20210;-66
2022/10/11 00:36:03;;;;;;;10.38;5.45;;;13.20;99.90;;;-141.84;73.87;18972.53;5112926;28;20223;-68
2022/10/11 00:38:32;;;;;;;8.73;5.55;;;13.20;99.90;;;-141.84;73.31;18980.66;5113102;28;20227;-67
2022/10/11 00:41:00;;;;;;;6.35;4.60;;;13.20;99.90;;;-141.84;72.45;18992.84;5112671;28;20590;-68
2022/10/11 00:43:32;;;;;;;8.95;4.60;;;13.20;99.90;;;-141.84;73.04;18954.25;5113213;28;20250;-68
2022/10/11 00:46:30;;;;;;;7.30;4.53;;;13.20;99.90;;;-141.84;71.66;18990.81;5113574;28;20188;-67
2022/10/11 00:49:06;;;;;;;6.10;3.20;;;13.20;99.90;;;-141.84;68.56;19053.81;5113192;28;20212;-67
2022/10/11 00:51:48;;;;;;;9.88;3.25;;;13.20;99.90;;;-141.84;68.69;19051.78;5113103;28;20219;-68
2022/10/11 00:54:24;;;;;;;6.20;2.90;;;13.20;99.90;;;-141.84;67.93;19084.28;5112922;28;20272;-66
2022/10/11 00:56:58;;;;;;;5.07;2.83;;;13.10;99.90;;;-141.84;69.19;19021.31;5112748;28;20226;-66
2022/10/11 00:59:35;;;;;;;8.47;2.87;;;13.00;99.90;;;-141.84;70.41;18984.72;5112787;28;20226;-67
2022/10/11 01:02:04;;;;;;;7.33;3.10;;;12.90;99.90;;;-141.84;71.20;18964.41;5112398;28;20207;-66
2022/10/11 01:04:33;;;;;;;5.33;2.83;;;12.70;99.90;;;-141.84;72.05;18897.34;5112759;28;20368;-67
2022/10/11 01:07:02;;;;;;;4.77;2.50;;;12.60;99.90;;;-141.84;73.41;18850.63;5113022;28;20203;-66
2022/10/11 01:09:31;;;;;;;4.50;2.60;;;12.40;99.90;;;-141.84;72.19;18933.94;5112313;28;20234;-68
2022/10/11 01:12:03;;;;;;;6.53;2.67;;;12.30;99.90;;;-141.84;72.28;18877.03;5112152;28;20642;-67
2022/10/11 01:15:05;;;;;;;9.47;2.60;;;12.30;99.90;;;-141.84;72.22;18885.16;5112519;28;20219;-69
2022/10/11 01:17:49;;;;;;;7.40;2.27;;;12.20;99.90;;;-141.84;72.25;18860.78;5112262;28;20229;-68
2022/10/11 01:20:43;;;;;;;4.97;2.37;;;12.10;99.90;;;-141.84;72.20;18897.34;5112221;28;20583;-67
2022/10/11 01:24:19;;;;;;;8.17;2.60;;;12.00;99.90;;;-141.84;72.39;18860.78;5108759;28;20227;-67
2022/10/11 01:27:47;;;;;;;6.87;2.33;;;11.90;99.90;;;-141.84;72.73;18803.88;5112112;27;20230;-67
2022/10/11 01:30:24;;;;;;;5.30;2.10;;;11.80;99.90;;;-141.84;72.86;18834.38;5109820;28;20218;-66
2022/10/11 01:33:18;;;;;;;5.90;2.13;;;11.70;99.90;;;-141.84;71.80;18854.69;5111882;28;20709;-67
2022/10/11 01:35:57;;;;;;;6.93;2.73;;;11.80;99.90;;;-141.84;72.27;18858.75;5111897;27;20259;-67
2022/10/11 01:38:35;;;;;;;5.60;2.03;;;11.80;99.90;;;-141.84;71.97;18885.16;5111185;28;20227;-67
2022/10/11 01:41:10;;;;;;;6.47;2.20;;;11.70;99.90;;;-141.84;72.36;18824.22;5111564;28;20313;-67
2022/10/11 01:43:41;;;;;;;5.73;2.37;;;11.60;99.90;;;-141.84;72.80;18795.75;5111872;28;20218;-68
2022/10/11 01:46:12;;;;;;;5.60;2.33;;;11.60;99.90;;;-141.84;73.92;18773.41;5111985;28;20184;-66
2022/10/11 01:48:51;;;;;;;4.63;1.80;;;11.40;99.90;;;-141.84;74.61;18753.09;5112425;28;20570;-66
2022/10/11 01:51:23;;;;;;;9.13;2.53;;;11.30;99.90;;;-141.84;75.56;18720.59;5111668;28;20226;-67
2022/10/11 01:54:24;;;;;;;8.40;2.30;;;11.20;99.90;;;-141.84;76.09;18686.03;5111434;28;20231;-69
2022/10/11 01:57:27;;;;;;;6.60;2.57;;;11.00;99.90;;;-141.84;76.59;18661.66;5111439;28;20621;-70
2022/10/11 02:00:04;;;;;;;7.10;2.83;;;10.90;99.90;;;-141.84;76.94;18688.06;5111350;27;20227;-67
2022/10/11 02:03:02;;;;;;;7.73;2.33;;;10.90;99.90;;;-141.84;77.02;18671.81;5111575;28;20222;-68
2022/10/11 02:05:39;;;;;;;6.47;2.30;;;10.90;99.90;;;-141.84;77.14;18661.66;5109690;28;20226;-66
2022/10/11 02:08:18;;;;;;;7.17;2.23;;;10.70;99.90;;;-141.84;77.67;18649.47;5111479;28;20227;-66
2022/10/11 02:10:54;;;;;;;6.03;2.47;;;10.70;99.90;;;-141.84;78.20;18629.16;5111330;28;20233;-67
2022/10/11 02:13:33;;;;;;;5.03;2.50;;;10.60;99.90;;;-141.84;78.59;18608.84;5111053;28;20214;-67
2022/10/11 02:16:08;;;;;;;5.23;2.53;;;10.50;99.90;;;-141.84;79.23;18590.56;5112001;28;20183;-67
2022/10/11 02:18:45;;;;;;;6.03;2.60;;;10.40;99.90;;;-141.84;79.54;18584.47;5111569;28;20219;-67
2022/10/11 02:21:19;;;;;;;6.70;2.53;;;10.30;99.90;;;-141.84;79.59;18535.69;5111048;28;20332;-67
2022/10/11 02:23:53;;;;;;;7.13;2.33;;;10.30;99.90;;;-141.84;79.77;18553.97;5107647;28;20280;-66
2022/10/11 02:26:24;;;;;;;7.30;2.60;;;10.20;99.90;;;-141.84;79.66;18558.03;5111011;28;20231;-68
2022/10/11 02:28:59;;;;;;;5.00;2.23;;;10.20;99.90;;;-141.84;80.32;18537.72;5110968;28;20226;-69
2022/10/11 02:31:30;;;;;;;8.70;2.90;;;10.10;99.90;;;-141.84;80.80;18535.69;5110952;28;20693;-67
2022/10/11 02:34:09;;;;;;;7.57;2.80;;;10.00;99.90;;;-141.84;81.26;18513.34;5111617;28;20211;-66
2022/10/11 02:36:47;;;;;;;6.40;2.50;;;9.90;99.90;;;-141.84;81.65;18517.41;5111446;28;20203;-69
2022/10/11 02:39:24;;;;;;;7.80;2.60;;;9.90;99.90;;;-141.84;82.28;18482.88;5110602;28;20219;-67
2022/10/11 02:41:57;;;;;;;6.43;2.50;;;9.70;99.90;;;-141.84;82.53;18493.03;5110784;28;20583;-67
2022/10/11 02:44:36;;;;;;;6.73;2.30;;;9.70;99.90;;;-141.84;82.76;18478.81;5111148;28;20227;-66
2022/10/11 02:47:05;;;;;;;9.77;2.87;;;9.60;99.90;;;-141.84;83.29;18452.41;5110887;28;20226;-67
2022/10/11 02:49:35;;;;;;;10.10;2.60;;;9.50;99.90;;;-141.84;82.60;18444.28;5112001;28;20802;-68
2022/10/11 02:52:06;;;;;;;5.80;2.50;;;9.50;99.90;;;-141.84;82.72;18454.44;5115701;28;20274;-68
2022/10/11 02:54:34;;;;;;;6.53;2.13;;;9.50;99.90;;;-141.84;82.65;18436.16;5114895;28;20269;-66
2022/10/11 02:57:02;;;;;;;7.43;2.70;;;9.50;99.90;;;-141.84;82.51;18415.81;5114723;28;20255;-66
2022/10/11 02:59:30;;;;;;;7.13;2.53;;;9.40;99.90;;;-141.84;82.99;18432.09;5115070;28;20757;-68
2022/10/11 03:01:58;;;;;;;8.43;2.80;;;9.40;99.90;;;-141.84;83.71;18393.47;5114617;28;20709;-67
2022/10/11 03:04:27;;;;;;;8.53;2.67;;;9.30;99.90;;;-141.84;83.63;18409.72;5114972;27;20231;-70
2022/10/11 03:06:56;;;;;;;6.73;2.53;;;9.30;99.90;;;-141.84;83.82;18419.88;5115647;28;20560;-70
2022/10/11 03:09:24;;;;;;;10.33;2.77;;;9.30;99.90;;;-141.84;83.87;18385.34;5114305;28;20234;-66
2022/10/11 03:11:52;;;;;;;6.67;2.50;;;9.20;99.90;;;-141.84;84.03;18369.09;5114702;28;20299;-66
2022/10/11 03:14:20;;;;;;;7.87;2.60;;;9.20;99.90;;;-141.84;84.30;18387.38;5114533;28;20222;-68
2022/10/11 03:16:48;;;;;;;7.37;2.93;;;9.30;99.90;;;-141.84;84.65;18369.09;5114783;28;20227;-67
2022/10/11 03:19:18;;;;;;;7.00;2.80;;;9.10;99.90;;;-141.84;85.24;18334.56;5114574;28;20184;-67
2022/10/11 03:21:46;;;;;;;6.83;2.43;;;9.00;99.90;;;-141.84;85.52;18346.75;5115096;28;20206;-66
2022/10/11 03:24:16;;;;;;;5.70;2.37;;;9.00;99.90;;;-141.84;85.53;18320.34;5110304;28;20359;-67
2022/10/11 03:26:44;;;;;;;8.40;2.90;;;9.00;99.90;;;-141.84;85.40;18324.41;5114299;28;20231;-67
2022/10/11 03:29:12;;;;;;;8.10;2.90;;;8.90;99.90;;;-141.84;85.30;18332.53;5114351;28;20223;-67
2022/10/11 03:31:40;;;;;;;9.47;3.23;;;8.90;99.90;;;-141.84;85.59;18312.22;5114127;27;20219;-67
2022/10/11 03:34:09;;;;;;;10.47;3.07;;;8.90;99.90;;;-141.84;85.58;18320.34;5114195;28;20242;-69
2022/10/11 03:36:37;;;;;;;7.87;2.73;;;8.80;99.90;;;-141.84;85.09;18334.56;5115116;28;20246;-67
2022/10/11 03:39:05;;;;;;;7.23;2.97;;;8.80;99.90;;;-141.84;84.92;18334.56;5114189;28;20602;-68
2022/10/11 03:41:34;;;;;;;9.67;3.20;;;8.80;99.90;;;-141.84;84.88;18320.34;5113979;28;20226;-68
2022/10/11 03:44:03;;;;;;;9.60;3.60;;;8.80;99.90;;;-141.84;84.99;18314.25;5113997;28;20227;-66
2022/10/11 03:46:31;;;;;;;6.60;3.73;;;8.80;99.90;;;-141.84;85.19;18275.66;5114260;27;20227;-67
2022/10/11 03:48:59;;;;;;;7.30;3.60;;;8.80;99.90;;;-141.84;85.14;18314.25;5114374;28;20200;-67
2022/10/11 03:51:27;;;;;;;7.50;3.40;;;8.80;99.90;;;-141.84;85.08;18289.88;5113538;28;20227;-67
2022/10/11 03:53:55;;;;;;;11.57;3.87;;;8.70;99.90;;;-141.84;85.42;18283.78;5113598;28;20702;-69
2022/10/11 03:56:23;;;;;;;10.17;3.40;;;8.70;99.90;;;-141.84;85.93;18271.59;5113882;28;20242;-66
2022/10/11 03:58:52;;;;;;;7.03;3.17;;;8.60;99.90;;;-141.84;86.00;18255.34;5113695;28;20770;-69
2022/10/11 04:01:20;;;;;;;11.17;3.50;;;8.60;99.90;;;-141.84;86.27;18255.34;5112522;28;20202;-67
2022/10/11 04:03:49;;;;;;;9.10;3.53;;;8.70;99.90;;;-141.84;86.94;18226.88;5114196;28;20222;-69
2022/10/11 04:06:17;;;;;;;5.87;3.07;;;8.50;99.90;;;-141.84;87.21;18243.16;5113466;28;20228;-66
2022/10/11 04:08:45;;;;;;;6.97;3.20;;;8.50;99.90;;;-141.84;87.42;18253.31;5113279;28;20787;-66
2022/10/11 04:11:13;;;;;;;6.27;3.70;;;8.40;99.90;;;-141.84;87.51;18259.41;5113348;28;20227;-68
2022/10/11 04:13:41;;;;;;;7.77;3.73;;;8.40;99.90;;;-141.84;87.17;18241.13;5113482;28;20231;-66
2022/10/11 04:16:10;;;;;;;7.47;3.53;;;8.40;99.90;;;-141.84;87.33;18226.88;5113768;28;20207;-67
2022/10/11 04:18:38;;;;;;;13.63;3.80;;;8.30;99.90;;;-141.84;87.42;18206.56;5114050;28;20797;-66
2022/10/11 04:21:06;;;;;;;9.07;3.57;;;8.40;99.90;;;-141.84;87.12;18235.00;5113396;27;20229;-67
2022/10/11 04:23:34;;;;;;;8.63;4.13;;;8.40;99.90;;;-141.84;86.87;18237.06;5109663;28;20269;-68
2022/10/11 04:26:06;;;;;;;13.00;4.43;;;8.40;99.90;;;-141.84;86.80;18220.78;5113278;28;20227;-67
2022/10/11 04:28:35;;;;;;;9.33;4.00;;;8.40;99.90;;;-141.84;86.80;18253.31;5113420;28;20298;-66
2022/10/11 04:31:05;;;;;;;10.33;4.50;;;8.40;99.90;;;-141.84;86.60;18226.88;5113875;28;20200;-69
2022/10/11 04:33:34;;;;;;;7.63;3.90;;;8.30;99.90;;;-141.84;87.08;18214.69;5113296;28;20238;-67
2022/10/11 04:36:03;;;;;;;9.07;3.73;;;8.20;99.90;;;-141.84;87.39;18204.53;5113001;28;20573;-70
2022/10/11 04:38:31;;;;;;;9.23;3.80;;;8.20;99.90;;;-141.84;87.79;18184.22;5128859;27;20253;-68
2022/10/11 04:41:07;;;;;;;6.43;3.40;;;8.20;99.90;;;-141.84;87.86;18180.16;5112916;28;20313;-67
2022/10/11 04:43:35;;;;;;;9.53;4.93;;;8.10;99.90;;;-141.84;88.13;18182.19;5113087;28;20215;-66
2022/10/11 04:46:04;;;;;;;8.50;4.27;;;8.10;99.90;;;-141.84;88.18;18188.28;5113885;28;20267;-67
2022/10/11 04:48:35;;;;;;;13.07;6.90;;;8.10;99.90;;;-141.84;88.17;18182.19;5113042;28;20215;-67
2022/10/11 04:51:04;;;;;;;9.73;4.70;;;8.20;99.90;;;-141.84;88.03;18174.06;5112614;28;20230;-66
2022/10/11 04:53:32;;;;;;;8.73;5.50;;;8.20;99.90;;;-141.84;87.26;18155.78;5112880;28;20223;-67
2022/10/11 04:56:03;;;;;;;8.13;5.10;;;8.30;99.90;;;-141.84;87.48;18178.13;5112677;28;20222;-66
2022/10/11 04:58:34;;;;;;;8.53;4.77;;;8.20;99.90;;;-141.84;87.85;18155.78;5112945;28;20272;-67
2022/10/11 05:01:02;;;;;;;10.80;4.33;;;8.20;99.90;;;-141.84;87.99;18174.06;5113165;28;20210;-67
2022/10/11 05:03:30;;;;;;;11.67;4.60;;;8.20;99.90;;;-141.84;88.04;18139.53;5112747;28;20725;-65
2022/10/11 05:06:01;;;;;;;10.37;4.50;;;8.10;99.90;;;-141.84;88.16;18141.56;5112298;28;20710;-66
2022/10/11 05:08:33;;;;;;;14.03;4.60;;;8.10;99.90;;;-141.84;88.54;18147.66;5112639;28;20226;-67
2022/10/11 05:11:04;;;;;;;11.60;4.33;;;8.10;99.90;;;-141.84;88.61;18159.84;5112257;28;20276;-66
2022/10/11 05:13:34;;;;;;;10.93;4.87;;;8.10;99.90;;;-141.84;88.55;18137.50;5112230;28;20605;-67
2022/10/11 05:16:03;;;;;;;9.77;4.13;;;8.10;99.90;;;-141.84;88.75;18133.44;5112848;28;20195;-67
2022/10/11 05:18:38;;;;;;;12.23;4.83;;;8.00;99.90;;;-141.84;88.69;18139.53;5112600;28;20211;-66
2022/10/11 05:21:15;;;;;;;9.97;4.30;;;8.00;99.90;;;-141.84;88.82;18113.13;5111827;28;20635;-66
2022/10/11 05:23:45;;;;;;;8.70;4.33;;;8.00;99.90;;;-141.84;88.93;18080.63;5108503;27;20219;-70
2022/10/11 05:26:13;;;;;;;11.67;4.53;;;7.90;99.90;;;-141.84;88.83;18094.84;5111673;28;20234;-67
2022/10/11 05:28:42;;;;;;;10.53;4.27;;;8.00;99.90;;;-141.84;88.32;18123.28;5112160;28;20227;-68
2022/10/11 05:31:11;;;;;;;10.20;4.60;;;8.00;99.90;;;-141.84;88.06;18131.41;5111910;28;20207;-67
2022/10/11 05:33:39;;;;;;;9.30;4.27;;;8.00;99.90;;;-141.84;87.56;18111.09;5112526;28;20202;-68
2022/10/11 05:36:09;;;;;;;10.77;4.07;;;8.00;99.90;;;-141.84;87.21;18135.47;5111515;28;20227;-67
2022/10/11 05:38:38;;;;;;;13.17;4.60;;;8.00;99.90;;;-141.84;87.30;18145.63;5111909;28;20226;-69
2022/10/11 05:41:07;;;;;;;9.30;4.37;;;8.00;99.90;;;-141.84;87.37;18105.00;5111535;28;20250;-67
2022/10/11 05:43:36;;;;;;;14.53;5.07;;;8.00;99.90;;;-141.84;87.08;18149.69;5111823;28;20226;-67
2022/10/11 05:46:04;;;;;;;12.20;5.27;;;8.10;99.90;;;-141.84;86.77;18141.56;5112226;28;20482;-68
2022/10/11 05:48:33;;;;;;;10.73;5.30;;;8.10;99.90;;;-141.84;87.11;18111.09;5111926;28;20226;-71
2022/10/11 05:51:02;;;;;;;9.40;5.00;;;8.10;99.90;;;-141.84;87.47;18139.53;5111385;28;20223;-69
2022/10/11 05:53:32;;;;;;;11.63;5.17;;;8.10;99.90;;;-141.84;87.98;18113.13;5111499;28;20706;-66
2022/10/11 05:56:00;;;;;;;9.57;4.00;;;8.10;99.90;;;-141.84;88.08;18141.56;5111533;28;20238;-68
2022/10/11 05:58:30;;;;;;;9.30;4.80;;;8.10;99.90;;;-141.84;88.06;18098.91;5111694;27;20252;-68
2022/10/11 06:00:58;;;;;;;9.40;4.57;;;8.10;99.90;;;-141.84;88.31;18119.22;5111713;28;20207;-68
2022/10/11 06:03:26;;;;;;;11.80;5.10;;;8.10;99.90;;;-141.84;88.47;18082.66;5111387;28;20223;-67
2022/10/11 06:05:54;;;;;;;10.10;4.83;;;8.20;99.90;;;-141.84;88.44;18100.94;5111152;28;20276;-67
2022/10/11 06:08:32;;;;;;;9.10;4.70;;;8.20;99.90;;;-141.84;88.39;18102.97;5111345;27;20740;-68
2022/10/11 06:11:12;;;;;;;13.13;4.97;;;8.30;99.90;;;-141.84;88.33;18098.91;5111019;28;20226;-68
2022/10/11 06:13:40;;;;;;;15.30;5.60;;;8.30;99.90;;;-141.84;87.98;18127.34;5111667;28;20242;-67
2022/10/11 06:16:09;;;;;;;16.77;6.20;;;8.40;99.90;;;-141.84;87.00;18139.53;5110928;28;20234;-68
2022/10/11 06:18:37;;;;;;;10.53;5.30;;;8.50;99.90;;;-141.84;86.55;18111.09;5111511;28;20734;-67
2022/10/11 06:21:06;;;;;;;15.20;5.47;;;8.60;99.90;;;-141.84;86.00;18127.34;5110931;28;20284;-66
2022/10/11 06:23:36;;;;;;;11.17;5.10;;;8.60;99.90;;;-141.84;86.21;18115.16;5107115;28;20720;-66
2022/10/11 06:26:07;;;;;;;17.97;5.53;;;8.70;99.90;;;-141.84;86.08;18147.66;5110573;28;20227;-68
2022/10/11 06:28:37;;;;;;;12.30;5.10;;;8.70;99.90;;;-141.84;85.64;18178.13;5111205;28;20283;-66
2022/10/11 06:31:07;;;;;;;10.20;4.70;;;8.80;99.90;;;-141.84;85.31;18172.03;5111283;28;20199;-68
2022/10/11 06:33:36;;;;;;;8.80;4.40;;;8.90;99.90;;;-141.84;85.58;18182.19;5111346;28;20222;-69
2022/10/11 06:36:08;;;;;;;10.50;5.43;;;9.00;99.90;;;-141.84;85.22;18208.59;5110608;28;20275;-67
2022/10/11 06:38:38;;;;;;;10.57;4.93;;;9.10;99.90;;;-141.84;84.39;18196.41;5111000;28;20222;-69
2022/10/11 06:41:16;;;;;;;11.73;4.30;;;9.10;99.90;;;-141.84;83.31;18228.91;5110452;28;20261;-68
2022/10/11 06:43:45;;;;;;;13.30;4.63;;;9.20;99.90;;;-141.84;83.06;18220.78;5111163;28;20246;-67
2022/10/11 06:46:13;;;;;;;11.03;4.07;;;9.30;99.90;;;-141.84;82.91;18245.19;5110912;28;20573;-68
2022/10/11 06:48:43;;;;;;;11.87;4.50;;;9.40;99.90;;;-141.84;81.75;18257.38;5095315;28;20629;-67
2022/10/11 06:51:11;;;;;;;9.90;3.90;;;9.50;99.90;;;-141.84;81.71;18302.06;5105971;28;20231;-66
2022/10/11 06:53:41;;;;;;;8.27;4.20;;;9.60;99.90;;;-141.84;81.46;18285.81;5109956;28;20231;-65
2022/10/11 06:56:12;;;;;;;9.63;4.27;;;9.60;99.90;;;-141.84;81.12;18314.25;5110410;28;20248;-66
2022/10/11 06:58:41;;;;;;;16.70;5.00;;;9.70;99.90;;;-141.84;79.51;18326.44;5111031;28;20227;-65
2022/10/11 07:01:12;;;;;;;13.27;4.67;;;9.80;99.90;;;-141.84;78.97;18369.09;5110629;28;20598;-64
2022/10/11 07:03:40;;;;;;;12.50;5.10;;;9.90;99.90;;;-141.84;78.81;18365.03;5111414;28;20183;-65
2022/10/11 07:06:12;;;;;;;9.63;4.93;;;10.00;99.90;;;-141.84;77.97;18379.25;5110569;28;20624;-65
2022/10/11 07:08:41;;;;;;;9.83;5.13;;;10.00;99.90;;;-141.84;75.02;18460.53;5110666;28;20227;-66
2022/10/11 07:11:12;;;;;;;9.57;4.50;;;10.20;99.90;;;-141.84;74.41;18454.44;5110606;28;20231;-66
2022/10/11 07:13:41;;;;;;;8.17;4.53;;;10.20;99.90;;;-141.84;74.02;18511.31;5110672;28;20219;-65
2022/10/11 07:16:12;;;;;;;14.80;4.53;;;10.30;99.90;;;-141.84;73.55;18529.59;5110719;28;20223;-65
2022/10/11 07:18:41;;;;;;;8.60;3.50;;;10.40;99.90;;;-141.84;72.67;18558.03;5111130;28;20183;-65
2022/10/11 07:21:12;;;;;;;8.20;3.57;;;10.50;99.90;;;-141.84;72.45;18592.59;5110300;28;20252;-65
2022/10/11 07:23:42;;;;;;;9.27;3.90;;;10.50;99.90;;;-141.84;71.99;18604.78;5106475;28;20237;-64
2022/10/11 07:26:11;;;;;;;6.77;3.50;;;10.60;99.90;;;-141.84;72.04;18651.50;5110142;28;20223;-65
2022/10/11 07:28:41;;;;;;;9.10;3.50;;;10.60;99.90;;;-141.84;72.04;18639.31;5110280;28;20223;-66
2022/10/11 07:31:13;;;;;;;15.07;4.23;;;10.70;99.90;;;-141.84;70.76;18688.06;5108959;28;20200;-66
2022/10/11 07:33:41;;;;;;;10.03;3.30;;;10.80;99.90;;;-141.84;70.23;18755.13;5109920;28;20192;-65
2022/10/11 07:36:10;;;;;;;7.57;3.70;;;10.90;99.90;;;-141.84;70.61;18730.75;5109685;28;20527;-65
2022/10/11 07:38:41;;;;;;;10.97;3.87;;;11.10;99.90;;;-141.84;69.80;18747.00;5112700;27;20231;-65
2022/10/11 07:41:10;;;;;;;11.30;4.00;;;11.20;99.90;;;-141.84;69.24;18785.59;5113023;28;20678;-65
2022/10/11 07:43:38;;;;;;;12.73;4.43;;;11.30;99.90;;;-141.84;68.85;18848.59;5113325;28;20223;-65
2022/10/11 07:46:07;;;;;;;17.90;4.63;;;11.30;99.90;;;-141.84;68.22;18862.81;5113399;28;20195;-65
2022/10/11 07:48:37;;;;;;;10.67;3.87;;;11.40;99.90;;;-141.84;68.22;18889.22;5113711;28;20422;-65
2022/10/11 07:51:10;;;;;;;11.23;3.40;;;11.60;99.90;;;-141.84;66.88;18994.88;5112733;28;20227;-64
2022/10/11 07:53:44;;;;;;;10.57;3.43;;;11.60;99.90;;;-141.84;67.25;18976.59;5113057;28;20225;-65
2022/10/11 07:56:15;;;;;;;7.37;3.30;;;11.70;99.90;;;-141.84;66.61;19035.53;5113126;28;20230;-65
2022/10/11 07:58:43;;;;;;;10.13;3.50;;;11.80;99.90;;;-141.84;66.22;19066.00;5113072;28;20291;-65
2022/10/11 08:01:13;;;;;;;8.23;3.07;;;11.90;99.90;;;-141.84;65.92;19129.00;5113079;28;20199;-65
2022/10/11 08:03:41;;;;;;;10.83;3.40;;;12.00;99.90;;;-141.84;65.34;19157.44;5113192;28;20200;-65
2022/10/11 08:06:13;;;;;;;9.07;3.10;;;12.10;99.90;;;-141.84;64.83;19202.16;5112803;27;20718;-67
2022/10/11 08:08:43;;;;;;;7.60;2.97;;;12.10;99.90;;;-141.84;64.09;19305.78;5112923;28;20250;-66
2022/10/11 08:11:19;;;;;;;8.87;2.80;;;12.20;99.90;;;-141.84;64.12;19309.84;5112749;28;20223;-65
2022/10/11 08:13:47;;;;;;;9.68;2.95;;;12.30;99.90;;;-141.84;63.88;19356.59;5112869;28;20226;-66
2022/10/11 08:16:16;;;;;;;10.17;2.80;;;12.40;99.90;;;-141.84;64.25;19330.16;5112759;28;20219;-65
2022/10/11 08:18:44;;;;;;;9.73;2.90;;;12.40;99.90;;;-141.84;63.75;19395.19;5113346;28;20195;-66
2022/10/11 08:21:16;;;;;;;5.80;2.93;;;12.50;99.90;;;-141.84;63.50;19415.50;5112544;28;20227;-67
2022/10/11 08:23:46;;;;;;;8.30;3.20;;;12.50;99.90;;;-141.84;63.27;19460.22;5108752;28;20223;-66
2022/10/11 08:26:14;;;;;;;9.90;3.20;;;12.70;99.90;;;-141.84;63.10;19474.44;5112339;28;20733;-65
2022/10/11 08:28:42;;;;;;;8.48;2.60;;;12.70;99.90;;;-141.84;62.19;19533.38;5112553;28;20793;-65
2022/10/11 08:31:14;;;;;;;8.63;3.10;;;12.80;99.90;;;-141.84;62.17;19602.47;5112674;27;20229;-66
2022/10/11 08:33:43;;;;;;;8.82;3.10;;;12.90;99.90;;;-141.84;62.00;19637.03;5112346;28;20639;-65
2022/10/11 08:36:12;;;;;;;11.65;2.80;;;13.00;99.90;;;-141.84;61.36;19720.34;5112306;28;20249;-66
2022/10/11 08:38:41;;;;;;;12.32;2.95;;;13.00;99.90;;;-141.84;60.53;19793.50;5111933;28;20660;-65
2022/10/11 08:41:27;;;;;;;5.05;2.33;;;13.20;99.90;;;-141.84;60.59;19787.41;5112164;28;20219;-65
2022/10/11 08:44:20;;;;;;;5.90;2.65;;;13.30;99.90;;;-141.84;59.97;19836.19;5112492;28;20272;-66
2022/10/11 08:46:59;;;;;;;9.18;2.58;;;13.30;99.90;;;-141.84;59.73;19889.03;5111875;28;20276;-65
2022/10/11 08:49:33;;;;;;;8.95;2.63;;;13.30;99.90;;;-141.84;60.38;19850.41;5111922;28;20223;-65
2022/10/11 08:52:06;;;;;;;7.75;2.40;;;13.30;99.90;;;-141.84;60.39;19878.88;5112661;28;20187;-66
2022/10/11 08:54:46;;;;;;;10.10;2.50;;;13.40;99.90;;;-141.84;59.71;19907.31;5112410;28;20227;-65
2022/10/11 08:57:20;;;;;;;16.65;3.10;;;13.40;99.90;;;-141.84;60.16;19911.41;5112436;28;20234;-65
2022/10/11 08:59:56;;;;;;;7.78;2.83;;;13.50;99.90;;;-141.84;60.06;19905.28;5111882;28;20720;-67
2022/10/11 09:02:40;;;;;;;8.50;1.90;;;13.60;99.90;;;-141.84;58.37;20037.41;5111983;28;20233;-66
2022/10/11 09:05:35;;;;;;;6.68;2.08;;;13.70;99.90;;;-141.84;57.71;20086.19;5111916;28;20223;-67
2022/10/11 09:08:18;;;;;;;8.70;2.08;;;13.80;99.90;;;-141.84;57.51;20078.06;5111737;28;20222;-67
2022/10/11 09:11:12;;;;;;;10.45;2.08;;;13.80;99.90;;;-141.84;56.88;20134.97;5111540;28;20388;-66
2022/10/11 09:14:14;;;;;;;10.20;2.25;;;13.90;99.90;;;-141.84;57.46;20096.34;5111823;28;20215;-67
2022/10/11 09:16:59;;;;;;;5.57;2.00;;;14.00;99.90;;;-141.84;57.00;20155.28;5111424;28;20725;-67
2022/10/11 09:19:56;;;;;;;9.60;2.10;;;14.00;99.90;;;-141.84;57.27;20132.94;5111368;28;20219;-66
2022/10/11 09:22:41;;;;;;;8.10;1.83;;;14.00;99.90;;;-141.84;56.18;20214.22;5111717;27;20189;-66
2022/10/11 09:25:23;;;;;;;8.10;2.00;;;14.20;99.90;;;-141.84;56.35;20234.56;5108172;28;20211;-66
2022/10/11 09:28:10;;;;;;;9.23;2.17;;;14.20;99.90;;;-141.84;55.37;20256.91;5111692;28;20660;-69
2022/10/11 09:30:47;;;;;;;7.03;1.70;;;14.30;99.90;;;-141.84;55.24;20315.88;5111425;28;20256;-66
2022/10/11 09:33:20;;;;;;;7.68;2.55;;;14.40;99.90;;;-141.84;54.79;20326.03;5111144;28;20721;-66
2022/10/11 09:35:52;;;;;;;10.15;2.15;;;14.50;99.90;;;-141.84;54.00;20358.56;5111133;28;20219;-67
2022/10/11 09:38:40;;;;;;;9.73;2.33;;;14.70;99.90;;;-141.84;54.73;20315.88;5111390;28;20230;-66
2022/10/11 09:41:18;;;;;;;6.45;2.25;;;14.50;99.90;;;-141.84;55.22;20334.16;5110899;28;20254;-67
2022/10/11 09:43:49;;;;;;;6.43;2.15;;;14.50;99.90;;;-141.84;55.79;20271.16;5111150;28;20581;-68
2022/10/11 09:46:31;;;;;;;8.43;2.10;;;14.40;99.90;;;-141.84;55.69;20267.09;5111377;28;20179;-67
2022/10/11 09:49:02;;;;;;;7.18;2.10;;;14.40;99.90;;;-141.84;55.30;20307.72;5111740;28;20191;-66
2022/10/11 09:51:32;;;;;;;7.35;1.90;;;14.30;99.90;;;-141.84;55.61;20252.84;5111254;28;20223;-65
2022/10/11 09:54:04;;;;;;;9.32;2.05;;;14.20;99.90;;;-141.84;55.84;20220.34;5110783;28;20227;-66
2022/10/11 09:56:40;;;;;;;5.60;1.75;;;14.00;99.90;;;-141.84;56.87;20165.44;5110854;28;20227;-67
2022/10/11 09:59:27;;;;;;;7.28;1.80;;;13.90;99.90;;;-141.84;57.94;20128.88;5110273;28;20707;-67
2022/10/11 10:02:20;;;;;;;6.53;1.80;;;13.70;99.90;;;-141.84;57.76;20134.97;5110873;28;20223;-69
2022/10/11 10:05:03;;;;;;;5.78;1.58;;;13.60;99.90;;;-141.84;58.44;20104.47;5110705;28;20268;-66
2022/10/11 10:07:34;;;;;;;5.30;1.92;;;13.50;99.90;;;-141.84;58.52;20076.03;5110937;28;20246;-68
2022/10/11 10:10:29;;;;;;;5.32;1.42;;;13.50;99.90;;;-141.84;57.78;20094.31;5111015;28;20752;-66
2022/10/11 10:13:01;;;;;;;5.75;1.80;;;13.40;99.90;;;-141.84;57.31;20120.75;5110989;28;20203;-68
2022/10/11 10:15:31;;;;;;;5.22;1.50;;;13.50;99.90;;;-141.84;57.59;20155.28;5110657;28;20223;-68
2022/10/11 10:18:01;;;;;;;7.85;1.90;;;13.50;99.90;;;-141.84;55.30;20240.66;5110530;28;20227;-67
2022/10/11 10:20:33;;;;;;;7.57;2.05;;;13.80;99.90;;;-141.84;52.93;20336.19;5110496;28;20226;-66
2022/10/11 10:23:09;;;;;;;6.07;1.88;;;14.20;99.90;;;-141.84;51.57;20401.22;5108041;28;20215;-65
2022/10/11 10:25:39;;;;;;;5.25;1.60;;;14.40;99.90;;;-141.84;49.95;20496.78;5102473;27;20281;-67
2022/10/11 10:28:22;;;;;;;4.60;1.23;;;14.70;99.90;;;-141.84;50.09;20490.66;5110705;27;20188;-66
2022/10/11 10:30:54;;;;;;;5.30;1.63;;;15.20;99.90;;;-141.84;50.46;20488.63;5110537;28;20640;-66
2022/10/11 10:33:26;;;;;;;9.43;1.98;;;15.10;99.90;;;-141.84;50.39;20460.19;5110403;27;20239;-68